Bw Wren — 9V2927 — position and weather

sailwx.info

Track history (hours):
 
Tides and Currents Weather Stations Pressure Air Temp Water Temp Dewpoint Dewpoint Depression Visibility Wind Speed Wind Dir Waves Ship Positions

Bw Wren

Last reported at 2018-Apr-04 01:13 UTC. Time now 2018-Jun-22 07:46 UTC.
Position N 41°35' E 141°24'.
Warning: this ship's position is months out of date.

Length 183 m; draft 10.8 m.

Type: Tanker. MMSI: 563889000.

Date/timePositionNaut miles runAvg speedWind from/ knotsBaromVisibWave heightAir tempDewpointWater temp
2018-Apr-04 01:13N 41°35' E 141°24'315.4
2018-Apr-04 01:00N 41°35' E 141°19'714.3
2018-Apr-04 00:30N 41°35' E 141°10'815.6
2018-Apr-04 00:00N 41°36' E 140°60'815.1
2018-Apr-03 23:30N 41°36' E 140°50'714.7
2018-Apr-03 23:00N 41°32' E 140°42'815.3
2018-Apr-03 22:30N 41°27' E 140°33'815.4
2018-Apr-03 21:58N 41°22' E 140°25'  
2018-Mar-31 05:23N 38°48' E 122°05'9 1.6
2018-Mar-30 23:47N 38°56' E 122°01'0 0.0
2018-Mar-30 18:23N 38°56' E 122°01'0 0.0
2018-Mar-30 04:29N 38°56' E 122°01'0 0.0
2018-Mar-30 03:59N 38°56' E 122°01'0 0.0
2018-Mar-30 01:59N 38°56' E 122°01'0 0.0
2018-Mar-30 01:29N 38°56' E 122°01'  
2018-Mar-26 00:13N 38°37' E 122°08'313.9
2018-Mar-26 00:00N 38°34' E 122°11'1913.8
2018-Mar-25 22:35N 38°23' E 122°30'113.3
2018-Mar-25 22:30N 38°22' E 122°32'  
Track history (hours):
 
Tides and Currents Weather Stations Pressure Air Temp Water Temp Dewpoint Dewpoint Depression Visibility Wind Speed Wind Dir Waves Ship Positions

Bw Wren

Last reported at 2018-Apr-04 01:13 UTC. Time now 2018-Jun-22 07:46 UTC.
Position N 41°35' E 141°24'.
Warning: this ship's position is months out of date.

Length 183 m; draft 10.8 m.

Type: Tanker. MMSI: 563889000.

Date/timePositionNaut miles runAvg speedWind from/ knotsBaromVisibWave heightAir tempDewpointWater temp
2018-Apr-04 01:13N 41°35' E 141°24'315.4
2018-Apr-04 01:00N 41°35' E 141°19'714.3
2018-Apr-04 00:30N 41°35' E 141°10'815.6
2018-Apr-04 00:00N 41°36' E 140°60'815.1
2018-Apr-03 23:30N 41°36' E 140°50'714.7
2018-Apr-03 23:00N 41°32' E 140°42'815.3
2018-Apr-03 22:30N 41°27' E 140°33'815.4
2018-Apr-03 21:58N 41°22' E 140°25'  
2018-Mar-31 05:23N 38°48' E 122°05'9 1.6
2018-Mar-30 23:47N 38°56' E 122°01'0 0.0
2018-Mar-30 18:23N 38°56' E 122°01'0 0.0
2018-Mar-30 04:29N 38°56' E 122°01'0 0.0
2018-Mar-30 03:59N 38°56' E 122°01'0 0.0
2018-Mar-30 01:59N 38°56' E 122°01'0 0.0
2018-Mar-30 01:29N 38°56' E 122°01'  
2018-Mar-26 00:13N 38°37' E 122°08'313.9
2018-Mar-26 00:00N 38°34' E 122°11'1913.8
2018-Mar-25 22:35N 38°23' E 122°30'113.3
2018-Mar-25 22:30N 38°22' E 122°32'  

Dump ship's entire track history